Hlavní strana
METAR-TAF:

METAR-TAF

Letiště :

Valdosta Regional Airport

Valdosta, Georgie, Spojené státy americké

zeměpisná šířka: 30-47N, zeměpisná délka: 083-17W, výška: 62 m

Aktuální stav počasí

Zpráva byla vytvořena před 31 minutami, v 07:53 UTC
Východoseverovýchodní vítr 5 kt
Teplota 12°C
Vlhkost vzduchu 76%
Tlak 1024 hPa
Viditelnost: 16.1 km
Jasno

METAR: KVLD 080753Z AUTO 07005KT 10SM CLR 12/08 A3023 RMK AO2 SLP243 T01170078

Čas: 03:24 (08:24 UTC)

Předpověď počasí

Zpráva byla vytvořena před 3 hodinami a 4 minutami, v 05:20 UTC
Předpověď platná od 08 v 06 UTC do 09 v 06 UTC
Východoseverovýchodní vítr 6 kt
Viditelnost: 10 km
Zataženo ve výšce 5000 ft
Od 08 v 0900 UTC
Východoseverovýchodní vítr 8 kt
Viditelnost: 10 km
Zataženo ve výšce 1500 ft
Od 08 v 1700 UTC
Východní vítr 8 kt
Viditelnost: 10 km
Zataženo ve výšce 2500 ft

TAF: KVLD 080520Z 0806/0906 06006KT P6SM OVC050 FM080900 06008KT P6SM OVC015 FM081700 10008KT P6SM OVC025

Stav a předpovědi počasí z více než 4 000 letišť (zprávy METAR a TAF).

Červené a žluté tečky na mapě představují dostupné meteorologické stanice.

Když kurzor umístíte na tečku, zobrazí se název stanice.

Pak kliknutím zobrazíte stav a předpověď počasí.

Chcete-li změnit mapu, kliknutím na zelené tlačítko se znaménkem +mapu přiblížíte, kliknutím na zelené tlačítko se znaménkem – mapu oddálíte a kliknutím na zelené šipky přejdete na sousední mapy.


METAR-TAF: